sensor_id;sensor_type;location;lat;lon;timestamp;pressure;altitude;pressure_sealevel;temperature;humidity
49515;BME280;35415;47.870;16.058;2023-04-26T00:00:41;96976.78;;;7.90;86.78
49515;BME280;35415;47.870;16.058;2023-04-26T00:03:11;96997.44;;;7.95;86.44
49515;BME280;35415;47.870;16.058;2023-04-26T00:05:39;97005.47;;;7.95;85.83
49515;BME280;35415;47.870;16.058;2023-04-26T00:08:08;97001.72;;;7.96;88.90
49515;BME280;35415;47.870;16.058;2023-04-26T00:10:35;96986.13;;;7.88;90.82
49515;BME280;35415;47.870;16.058;2023-04-26T00:13:08;96997.69;;;7.93;90.37
49515;BME280;35415;47.870;16.058;2023-04-26T00:15:37;96994.13;;;7.82;89.38
49515;BME280;35415;47.870;16.058;2023-04-26T00:18:04;97007.53;;;7.88;89.82
49515;BME280;35415;47.870;16.058;2023-04-26T00:20:31;97001.88;;;7.79;92.13
49515;BME280;35415;47.870;16.058;2023-04-26T00:22:58;97007.00;;;7.85;91.64
49515;BME280;35415;47.870;16.058;2023-04-26T00:25:25;97009.94;;;7.84;94.29
49515;BME280;35415;47.870;16.058;2023-04-26T00:27:52;97001.59;;;7.75;95.32
49515;BME280;35415;47.870;16.058;2023-04-26T00:30:19;97001.63;;;7.80;96.00
49515;BME280;35415;47.870;16.058;2023-04-26T00:32:51;97006.41;;;7.78;97.08
49515;BME280;35415;47.870;16.058;2023-04-26T00:35:18;97006.41;;;7.78;95.63
49515;BME280;35415;47.870;16.058;2023-04-26T00:37:46;96985.41;;;7.60;94.95
49515;BME280;35415;47.870;16.058;2023-04-26T00:40:13;96984.31;;;7.61;95.80
49515;BME280;35415;47.870;16.058;2023-04-26T00:42:41;97006.38;;;7.73;96.72
49515;BME280;35415;47.870;16.058;2023-04-26T00:45:09;97005.59;;;7.73;96.62
49515;BME280;35415;47.870;16.058;2023-04-26T00:47:36;97011.41;;;7.70;97.05
49515;BME280;35415;47.870;16.058;2023-04-26T00:50:06;96984.53;;;7.54;95.94
49515;BME280;35415;47.870;16.058;2023-04-26T00:52:35;97009.25;;;7.67;96.98
49515;BME280;35415;47.870;16.058;2023-04-26T00:55:02;97007.66;;;7.66;97.71
49515;BME280;35415;47.870;16.058;2023-04-26T00:57:30;97013.25;;;7.64;98.29
49515;BME280;35415;47.870;16.058;2023-04-26T00:59:57;97016.19;;;7.63;98.68
49515;BME280;35415;47.870;16.058;2023-04-26T01:02:25;97021.53;;;7.63;97.83
49515;BME280;35415;47.870;16.058;2023-04-26T01:04:52;96961.47;;;7.21;96.87
49515;BME280;35415;47.870;16.058;2023-04-26T01:07:20;97013.75;;;7.56;98.14
49515;BME280;35415;47.870;16.058;2023-04-26T01:09:48;96995.69;;;7.46;98.61
49515;BME280;35415;47.870;16.058;2023-04-26T01:12:15;97025.53;;;7.60;95.70
49515;BME280;35415;47.870;16.058;2023-04-26T01:14:44;97036.53;;;7.64;96.96
49515;BME280;35415;47.870;16.058;2023-04-26T01:17:11;97024.22;;;7.63;96.46
49515;BME280;35415;47.870;16.058;2023-04-26T01:19:46;96991.84;;;7.37;92.38
49515;BME280;35415;47.870;16.058;2023-04-26T01:22:13;97016.63;;;7.54;88.33
49515;BME280;35415;47.870;16.058;2023-04-26T01:24:43;97025.97;;;7.52;85.65
49515;BME280;35415;47.870;16.058;2023-04-26T01:27:10;97038.63;;;7.57;86.96
49515;BME280;35415;47.870;16.058;2023-04-26T01:29:38;97039.13;;;7.53;85.61
49515;BME280;35415;47.870;16.058;2023-04-26T01:32:05;97010.53;;;7.32;83.74
49515;BME280;35415;47.870;16.058;2023-04-26T01:34:32;97040.69;;;7.49;81.32
49515;BME280;35415;47.870;16.058;2023-04-26T01:36:59;97046.28;;;7.48;81.17
49515;BME280;35415;47.870;16.058;2023-04-26T01:39:26;97045.47;;;7.47;79.68
49515;BME280;35415;47.870;16.058;2023-04-26T01:41:56;97041.44;;;7.45;80.46
49515;BME280;35415;47.870;16.058;2023-04-26T01:44:24;97038.22;;;7.43;77.26
49515;BME280;35415;47.870;16.058;2023-04-26T01:46:51;97023.59;;;7.23;74.75
49515;BME280;35415;47.870;16.058;2023-04-26T01:49:18;97052.13;;;7.40;76.26
49515;BME280;35415;47.870;16.058;2023-04-26T01:51:45;97055.00;;;7.38;75.11
49515;BME280;35415;47.870;16.058;2023-04-26T01:54:12;97012.97;;;7.07;73.73
49515;BME280;35415;47.870;16.058;2023-04-26T01:56:39;97042.59;;;7.27;72.60
49515;BME280;35415;47.870;16.058;2023-04-26T01:59:08;97023.47;;;7.13;72.95
49515;BME280;35415;47.870;16.058;2023-04-26T02:01:35;97060.31;;;7.33;72.28
49515;BME280;35415;47.870;16.058;2023-04-26T02:04:02;97059.47;;;7.28;70.12
49515;BME280;35415;47.870;16.058;2023-04-26T02:06:29;97056.50;;;7.24;73.23
49515;BME280;35415;47.870;16.058;2023-04-26T02:08:57;97045.47;;;7.20;75.39
49515;BME280;35415;47.870;16.058;2023-04-26T02:11:24;97023.59;;;7.02;72.45
49515;BME280;35415;47.870;16.058;2023-04-26T02:13:51;97050.50;;;7.17;72.38
49515;BME280;35415;47.870;16.058;2023-04-26T02:16:20;97044.88;;;7.13;76.05
49515;BME280;35415;47.870;16.058;2023-04-26T02:18:47;97034.41;;;7.12;76.93
49515;BME280;35415;47.870;16.058;2023-04-26T02:21:16;97047.50;;;7.08;74.96
49515;BME280;35415;47.870;16.058;2023-04-26T02:23:43;97042.00;;;6.98;75.26
49515;BME280;35415;47.870;16.058;2023-04-26T02:26:10;97039.03;;;6.94;75.80
49515;BME280;35415;47.870;16.058;2023-04-26T02:28:38;97055.13;;;7.00;74.10
49515;BME280;35415;47.870;16.058;2023-04-26T02:31:05;97045.34;;;6.88;77.80
49515;BME280;35415;47.870;16.058;2023-04-26T02:33:34;97050.53;;;6.95;77.54
49515;BME280;35415;47.870;16.058;2023-04-26T02:36:02;97052.09;;;6.91;79.97
49515;BME280;35415;47.870;16.058;2023-04-26T02:38:31;97059.31;;;6.90;79.10
49515;BME280;35415;47.870;16.058;2023-04-26T02:40:58;97054.44;;;6.87;77.24
49515;BME280;35415;47.870;16.058;2023-04-26T02:43:25;97053.88;;;6.85;76.84
49515;BME280;35415;47.870;16.058;2023-04-26T02:45:52;97057.88;;;6.83;78.75
49515;BME280;35415;47.870;16.058;2023-04-26T02:48:19;97055.63;;;6.75;79.27
49515;BME280;35415;47.870;16.058;2023-04-26T02:50:48;96995.88;;;6.42;80.44
49515;BME280;35415;47.870;16.058;2023-04-26T02:53:15;97051.66;;;6.77;81.14
49515;BME280;35415;47.870;16.058;2023-04-26T02:55:44;97048.59;;;6.69;81.59
49515;BME280;35415;47.870;16.058;2023-04-26T02:58:11;97057.97;;;6.71;79.25
49515;BME280;35415;47.870;16.058;2023-04-26T03:00:38;97048.59;;;6.69;75.56
49515;BME280;35415;47.870;16.058;2023-04-26T03:03:09;97062.28;;;6.72;74.52
49515;BME280;35415;47.870;16.058;2023-04-26T03:05:36;97064.13;;;6.72;73.06
49515;BME280;35415;47.870;16.058;2023-04-26T03:08:04;97003.75;;;6.32;77.27
49515;BME280;35415;47.870;16.058;2023-04-26T03:10:31;97057.16;;;6.71;80.67
49515;BME280;35415;47.870;16.058;2023-04-26T03:12:58;97061.16;;;6.68;79.17
49515;BME280;35415;47.870;16.058;2023-04-26T03:15:25;97055.69;;;6.58;80.21
49515;BME280;35415;47.870;16.058;2023-04-26T03:17:52;97059.84;;;6.71;75.35
49515;BME280;35415;47.870;16.058;2023-04-26T03:20:19;97035.22;;;6.47;72.26
49515;BME280;35415;47.870;16.058;2023-04-26T03:22:46;97067.81;;;6.66;70.80
49515;BME280;35415;47.870;16.058;2023-04-26T03:25:16;97059.78;;;6.66;73.97
49515;BME280;35415;47.870;16.058;2023-04-26T03:27:43;97033.59;;;6.46;71.05
49515;BME280;35415;47.870;16.058;2023-04-26T03:30:11;97058.41;;;6.63;70.27
49515;BME280;35415;47.870;16.058;2023-04-26T03:32:38;97043.78;;;6.49;72.29
49515;BME280;35415;47.870;16.058;2023-04-26T03:35:05;97059.97;;;6.59;72.43
49515;BME280;35415;47.870;16.058;2023-04-26T03:37:32;97065.81;;;6.56;75.26
49515;BME280;35415;47.870;16.058;2023-04-26T03:39:59;97040.09;;;6.33;73.83
49515;BME280;35415;47.870;16.058;2023-04-26T03:42:28;97083.94;;;6.54;71.67
49515;BME280;35415;47.870;16.058;2023-04-26T03:44:55;97073.94;;;6.44;70.63
49515;BME280;35415;47.870;16.058;2023-04-26T03:47:22;97095.31;;;6.44;71.95
49515;BME280;35415;47.870;16.058;2023-04-26T03:49:49;97087.63;;;6.31;72.50
49515;BME280;35415;47.870;16.058;2023-04-26T03:52:16;97102.19;;;6.40;74.25
49515;BME280;35415;47.870;16.058;2023-04-26T03:54:44;97098.38;;;6.36;74.20
49515;BME280;35415;47.870;16.058;2023-04-26T03:57:11;97101.28;;;6.34;77.58
49515;BME280;35415;47.870;16.058;2023-04-26T03:59:39;97099.09;;;6.31;77.12
49515;BME280;35415;47.870;16.058;2023-04-26T04:02:06;97104.94;;;6.28;76.02
49515;BME280;35415;47.870;16.058;2023-04-26T04:04:33;97075.97;;;6.03;75.79
49515;BME280;35415;47.870;16.058;2023-04-26T04:07:01;97117.97;;;6.25;76.48
49515;BME280;35415;47.870;16.058;2023-04-26T04:09:28;97112.63;;;6.25;74.90
49515;BME280;35415;47.870;16.058;2023-04-26T04:11:55;97091.66;;;6.17;75.87
49515;BME280;35415;47.870;16.058;2023-04-26T04:14:22;97111.03;;;6.24;77.40
49515;BME280;35415;47.870;16.058;2023-04-26T04:16:51;97120.09;;;6.23;79.12
49515;BME280;35415;47.870;16.058;2023-04-26T04:19:18;97113.44;;;6.25;78.85
49515;BME280;35415;47.870;16.058;2023-04-26T04:21:45;97111.59;;;6.26;79.27
49515;BME280;35415;47.870;16.058;2023-04-26T04:24:12;97121.22;;;6.27;78.65
49515;BME280;35415;47.870;16.058;2023-04-26T04:26:38;97126.06;;;6.30;78.24
49515;BME280;35415;47.870;16.058;2023-04-26T04:29:06;97051.78;;;5.93;77.95
49515;BME280;35415;47.870;16.058;2023-04-26T04:31:34;97127.69;;;6.31;77.50
49515;BME280;35415;47.870;16.058;2023-04-26T04:34:02;97131.72;;;6.33;77.64
49515;BME280;35415;47.870;16.058;2023-04-26T04:36:30;97129.47;;;6.42;76.74
49515;BME280;35415;47.870;16.058;2023-04-26T04:38:58;97013.28;;;5.72;77.39
49515;BME280;35415;47.870;16.058;2023-04-26T04:41:25;97126.31;;;6.45;77.06
49515;BME280;35415;47.870;16.058;2023-04-26T04:43:52;97126.94;;;6.52;76.56
49515;BME280;35415;47.870;16.058;2023-04-26T04:46:19;97121.28;;;6.49;76.77
49515;BME280;35415;47.870;16.058;2023-04-26T04:48:46;97134.00;;;6.58;76.70
49515;BME280;35415;47.870;16.058;2023-04-26T04:51:15;97140.22;;;6.64;76.65
49515;BME280;35415;47.870;16.058;2023-04-26T04:53:42;97145.31;;;6.66;76.18
49515;BME280;35415;47.870;16.058;2023-04-26T04:56:09;97123.63;;;6.62;76.74
49515;BME280;35415;47.870;16.058;2023-04-26T04:58:36;97127.41;;;6.66;75.28
49515;BME280;35415;47.870;16.058;2023-04-26T05:01:03;97120.94;;;6.62;75.67
49515;BME280;35415;47.870;16.058;2023-04-26T05:03:30;97145.22;;;6.77;75.68
49515;BME280;35415;47.870;16.058;2023-04-26T05:05:59;97134.28;;;6.79;74.51
49515;BME280;35415;47.870;16.058;2023-04-26T05:08:30;97148.75;;;6.83;74.54
49515;BME280;35415;47.870;16.058;2023-04-26T05:11:00;97153.06;;;6.84;73.48
49515;BME280;35415;47.870;16.058;2023-04-26T05:13:27;97148.00;;;6.87;74.36
49515;BME280;35415;47.870;16.058;2023-04-26T05:15:54;97146.09;;;6.83;74.15
49515;BME280;35415;47.870;16.058;2023-04-26T05:18:23;97145.03;;;6.84;73.43
49515;BME280;35415;47.870;16.058;2023-04-26T05:20:50;97083.94;;;6.54;72.65
49515;BME280;35415;47.870;16.058;2023-04-26T05:23:17;97138.22;;;6.93;72.55
49515;BME280;35415;47.870;16.058;2023-04-26T05:25:46;97122.59;;;6.85;73.39
49515;BME280;35415;47.870;16.058;2023-04-26T05:28:13;97144.69;;;6.97;72.45
49515;BME280;35415;47.870;16.058;2023-04-26T05:30:44;97162.25;;;7.10;72.59
49515;BME280;35415;47.870;16.058;2023-04-26T05:33:12;97163.66;;;7.17;71.92
49515;BME280;35415;47.870;16.058;2023-04-26T05:35:39;97173.63;;;7.22;69.70
49515;BME280;35415;47.870;16.058;2023-04-26T05:38:09;97170.72;;;7.23;69.73
49515;BME280;35415;47.870;16.058;2023-04-26T05:40:36;97178.53;;;7.30;70.24
49515;BME280;35415;47.870;16.058;2023-04-26T05:43:04;97168.34;;;7.27;69.46
49515;BME280;35415;47.870;16.058;2023-04-26T05:45:31;97181.03;;;7.37;68.21
49515;BME280;35415;47.870;16.058;2023-04-26T05:47:59;97182.16;;;7.41;67.76
49515;BME280;35415;47.870;16.058;2023-04-26T05:50:26;97182.22;;;7.46;67.19
49515;BME280;35415;47.870;16.058;2023-04-26T05:52:53;97188.94;;;7.48;66.95
49515;BME280;35415;47.870;16.058;2023-04-26T05:55:21;97191.91;;;7.52;66.33
49515;BME280;35415;47.870;16.058;2023-04-26T05:57:48;97189.53;;;7.55;65.35
49515;BME280;35415;47.870;16.058;2023-04-26T06:00:18;97153.66;;;7.30;65.95
49515;BME280;35415;47.870;16.058;2023-04-26T06:02:48;97200.34;;;7.61;66.29
49515;BME280;35415;47.870;16.058;2023-04-26T06:05:15;97211.59;;;7.63;66.34
49515;BME280;35415;47.870;16.058;2023-04-26T06:07:42;97195.78;;;7.61;64.42
49515;BME280;35415;47.870;16.058;2023-04-26T06:10:10;97183.63;;;7.53;64.91
49515;BME280;35415;47.870;16.058;2023-04-26T06:12:38;97206.84;;;7.70;65.41
49515;BME280;35415;47.870;16.058;2023-04-26T06:15:06;97205.50;;;7.67;64.85
49515;BME280;35415;47.870;16.058;2023-04-26T06:17:41;97219.75;;;7.73;64.69
49515;BME280;35415;47.870;16.058;2023-04-26T06:20:15;97211.22;;;7.76;64.31
49515;BME280;35415;47.870;16.058;2023-04-26T06:22:44;97090.09;;;6.93;63.78
49515;BME280;35415;47.870;16.058;2023-04-26T06:40:41;97229.69;;;7.55;67.75
49515;BME280;35415;47.870;16.058;2023-04-26T07:07:31;97241.91;;;7.46;69.00
49515;BME280;35415;47.870;16.058;2023-04-26T07:10:00;97247.31;;;7.51;68.00
49515;BME280;35415;47.870;16.058;2023-04-26T07:12:37;97239.19;;;7.41;65.58
49515;BME280;35415;47.870;16.058;2023-04-26T07:15:05;97251.63;;;7.52;65.89
49515;BME280;35415;47.870;16.058;2023-04-26T07:17:32;97256.97;;;7.52;66.38
49515;BME280;35415;47.870;16.058;2023-04-26T07:19:59;97246.44;;;7.46;65.63
49515;BME280;35415;47.870;16.058;2023-04-26T07:22:37;97230.00;;;7.37;64.84
49515;BME280;35415;47.870;16.058;2023-04-26T07:25:11;97205.09;;;7.15;65.33
49515;BME280;35415;47.870;16.058;2023-04-26T07:27:38;97264.84;;;7.59;64.53
49515;BME280;35415;47.870;16.058;2023-04-26T07:30:07;97120.13;;;6.61;65.17
49515;BME280;35415;47.870;16.058;2023-04-26T07:32:35;97225.78;;;7.41;64.39
49515;BME280;35415;47.870;16.058;2023-04-26T07:35:12;97115.16;;;6.70;64.07
49515;BME280;35415;47.870;16.058;2023-04-26T07:37:42;97224.41;;;7.39;63.61
49515;BME280;35415;47.870;16.058;2023-04-26T07:42:53;97271.34;;;7.68;63.30
49515;BME280;35415;47.870;16.058;2023-04-26T07:45:20;97261.44;;;7.69;63.41
49515;BME280;35415;47.870;16.058;2023-04-26T07:50:46;97266.09;;;7.73;61.83
49515;BME280;35415;47.870;16.058;2023-04-26T07:53:29;97225.03;;;7.46;61.68
49515;BME280;35415;47.870;16.058;2023-04-26T07:55:56;97264.22;;;7.74;62.17
49515;BME280;35415;47.870;16.058;2023-04-26T07:58:23;97267.97;;;7.73;62.39
49515;BME280;35415;47.870;16.058;2023-04-26T08:00:51;97264.94;;;7.69;62.83
49515;BME280;35415;47.870;16.058;2023-04-26T08:03:19;97270.13;;;7.76;63.78
49515;BME280;35415;47.870;16.058;2023-04-26T08:05:46;97269.31;;;7.75;64.31
49515;BME280;35415;47.870;16.058;2023-04-26T08:08:13;97261.53;;;7.74;63.56
49515;BME280;35415;47.870;16.058;2023-04-26T08:10:42;97257.47;;;7.71;62.27
49515;BME280;35415;47.870;16.058;2023-04-26T08:13:09;97273.13;;;7.79;62.26
49515;BME280;35415;47.870;16.058;2023-04-26T08:15:36;97276.59;;;7.80;63.14
49515;BME280;35415;47.870;16.058;2023-04-26T08:18:03;97273.16;;;7.84;62.49
49515;BME280;35415;47.870;16.058;2023-04-26T08:20:33;97277.72;;;7.84;64.09
49515;BME280;35415;47.870;16.058;2023-04-26T08:23:00;97245.66;;;7.67;63.38
49515;BME280;35415;47.870;16.058;2023-04-26T08:25:27;97273.97;;;7.85;62.83
49515;BME280;35415;47.870;16.058;2023-04-26T08:27:56;97280.69;;;7.88;63.94
49515;BME280;35415;47.870;16.058;2023-04-26T08:30:23;97294.88;;;7.88;64.28
49515;BME280;35415;47.870;16.058;2023-04-26T08:32:50;97280.13;;;7.85;64.80
49515;BME280;35415;47.870;16.058;2023-04-26T08:35:17;97290.59;;;7.87;64.77
49515;BME280;35415;47.870;16.058;2023-04-26T08:37:44;97275.22;;;7.77;64.55
49515;BME280;35415;47.870;16.058;2023-04-26T09:00:42;97307.00;;;7.91;64.30
49515;BME280;35415;47.870;16.058;2023-04-26T09:03:10;97299.03;;;7.96;65.94
49515;BME280;35415;47.870;16.058;2023-04-26T09:05:38;97293.41;;;7.97;65.41
49515;BME280;35415;47.870;16.058;2023-04-26T09:08:08;97299.31;;;7.99;64.22
49515;BME280;35415;47.870;16.058;2023-04-26T09:10:39;97292.94;;;8.05;65.12
49515;BME280;35415;47.870;16.058;2023-04-26T09:13:06;97295.72;;;8.10;63.94
49515;BME280;35415;47.870;16.058;2023-04-26T09:15:33;97288.28;;;8.18;64.46
49515;BME280;35415;47.870;16.058;2023-04-26T09:18:19;97278.63;;;8.17;64.13
49515;BME280;35415;47.870;16.058;2023-04-26T09:21:01;97275.31;;;8.31;63.81
49515;BME280;35415;47.870;16.058;2023-04-26T09:23:28;97252.94;;;8.21;63.74
49515;BME280;35415;47.870;16.058;2023-04-26T09:26:13;97270.63;;;8.43;59.58
49515;BME280;35415;47.870;16.058;2023-04-26T09:28:47;97257.53;;;8.47;61.36
49515;BME280;35415;47.870;16.058;2023-04-26T09:31:35;97271.34;;;8.61;61.06
49515;BME280;35415;47.870;16.058;2023-04-26T09:34:04;97251.69;;;8.55;59.84
49515;BME280;35415;47.870;16.058;2023-04-26T09:36:45;97264.38;;;8.65;59.79
49515;BME280;35415;47.870;16.058;2023-04-26T09:39:13;97277.66;;;8.77;58.97
49515;BME280;35415;47.870;16.058;2023-04-26T09:41:43;97275.25;;;8.80;57.89
49515;BME280;35415;47.870;16.058;2023-04-26T09:44:20;97268.03;;;8.86;58.56
49515;BME280;35415;47.870;16.058;2023-04-26T09:46:58;97269.97;;;8.90;58.15
49515;BME280;35415;47.870;16.058;2023-04-26T09:49:27;97271.59;;;8.91;56.08
49515;BME280;35415;47.870;16.058;2023-04-26T09:52:02;97270.00;;;8.95;57.01
49515;BME280;35415;47.870;16.058;2023-04-26T09:54:44;97233.69;;;8.83;56.86
49515;BME280;35415;47.870;16.058;2023-04-26T09:57:12;97258.50;;;9.00;55.65
49515;BME280;35415;47.870;16.058;2023-04-26T09:59:45;97241.06;;;8.97;56.91
49515;BME280;35415;47.870;16.058;2023-04-26T10:02:16;97226.81;;;8.92;57.02
49515;BME280;35415;47.870;16.058;2023-04-26T10:04:47;97244.03;;;9.06;57.31
49515;BME280;35415;47.870;16.058;2023-04-26T10:07:15;97259.94;;;9.13;56.87
49515;BME280;35415;47.870;16.058;2023-04-26T10:09:43;97236.53;;;9.03;56.88
49515;BME280;35415;47.870;16.058;2023-04-26T10:12:12;97255.69;;;9.22;57.39
49515;BME280;35415;47.870;16.058;2023-04-26T10:14:41;97243.88;;;9.23;57.00
49515;BME280;35415;47.870;16.058;2023-04-26T10:17:10;97253.06;;;9.27;58.19
49515;BME280;35415;47.870;16.058;2023-04-26T10:19:38;97261.66;;;9.29;59.46
49515;BME280;35415;47.870;16.058;2023-04-26T10:22:12;97259.28;;;9.38;60.72
49515;BME280;35415;47.870;16.058;2023-04-26T10:24:42;97251.50;;;9.36;60.96
49515;BME280;35415;47.870;16.058;2023-04-26T10:27:10;97240.56;;;9.48;61.47
49515;BME280;35415;47.870;16.058;2023-04-26T10:30:05;97246.00;;;9.58;61.99
49515;BME280;35415;47.870;16.058;2023-04-26T10:33:10;97241.72;;;9.67;62.87
49515;BME280;35415;47.870;16.058;2023-04-26T10:36:06;97194.38;;;9.46;63.13
49515;BME280;35415;47.870;16.058;2023-04-26T10:38:37;97235.59;;;9.82;62.18
49515;BME280;35415;47.870;16.058;2023-04-26T10:41:29;97231.84;;;9.88;61.29
49515;BME280;35415;47.870;16.058;2023-04-26T10:43:57;97237.78;;;9.90;60.89
49515;BME280;35415;47.870;16.058;2023-04-26T10:46:33;97231.06;;;9.87;62.02
49515;BME280;35415;47.870;16.058;2023-04-26T10:49:15;97227.34;;;9.99;62.61
49515;BME280;35415;47.870;16.058;2023-04-26T10:52:09;97227.88;;;10.06;62.01
49515;BME280;35415;47.870;16.058;2023-04-26T10:54:52;97238.94;;;10.14;62.65
49515;BME280;35415;47.870;16.058;2023-04-26T10:57:20;97226.31;;;10.20;62.57
49515;BME280;35415;47.870;16.058;2023-04-26T11:09:16;97221.81;;;10.56;61.67
49515;BME280;35415;47.870;16.058;2023-04-26T11:12:00;97221.53;;;10.58;58.05
49515;BME280;35415;47.870;16.058;2023-04-26T11:14:29;97224.78;;;10.60;57.11
49515;BME280;35415;47.870;16.058;2023-04-26T11:16:57;97229.63;;;10.63;58.91
49515;BME280;35415;47.870;16.058;2023-04-26T11:19:25;97198.94;;;10.53;58.66
49515;BME280;35415;47.870;16.058;2023-04-26T11:21:52;97233.66;;;10.65;59.11
49515;BME280;35415;47.870;16.058;2023-04-26T11:27:26;97239.03;;;10.55;55.75
49515;BME280;35415;47.870;16.058;2023-04-26T11:29:53;97248.44;;;10.58;55.66
49515;BME280;35415;47.870;16.058;2023-04-26T11:32:23;97235.50;;;10.39;56.52
49515;BME280;35415;47.870;16.058;2023-04-26T11:34:52;97257.31;;;10.43;55.19
49515;BME280;35415;47.870;16.058;2023-04-26T11:37:19;97243.31;;;10.26;55.51
49515;BME280;35415;47.870;16.058;2023-04-26T11:39:47;97257.00;;;10.29;55.33
49515;BME280;35415;47.870;16.058;2023-04-26T11:42:15;97228.44;;;10.13;54.32
49515;BME280;35415;47.870;16.058;2023-04-26T11:44:44;97212.28;;;9.98;54.67
49515;BME280;35415;47.870;16.058;2023-04-26T11:47:18;97231.13;;;10.08;54.22
49515;BME280;35415;47.870;16.058;2023-04-26T11:49:46;97219.22;;;9.88;53.78
49515;BME280;35415;47.870;16.058;2023-04-26T11:52:13;97202.84;;;9.85;53.89
49515;BME280;35415;47.870;16.058;2023-04-26T11:54:40;97240.50;;;10.00;54.32
49515;BME280;35415;47.870;16.058;2023-04-26T12:00:13;97226.81;;;10.07;54.10
49515;BME280;35415;47.870;16.058;2023-04-26T12:14:46;97213.47;;;10.73;53.73
49515;BME280;35415;47.870;16.058;2023-04-26T12:17:14;97198.16;;;10.83;51.57
49515;BME280;35415;47.870;16.058;2023-04-26T12:25:51;97189.16;;;11.34;52.25
49515;BME280;35415;47.870;16.058;2023-04-26T12:31:26;97180.75;;;11.51;49.16
49515;BME280;35415;47.870;16.058;2023-04-26T12:33:54;97184.00;;;11.53;48.95
49515;BME280;35415;47.870;16.058;2023-04-26T12:39:12;97196.34;;;11.64;47.72
49515;BME280;35415;47.870;16.058;2023-04-26T12:41:40;97200.94;;;11.63;45.91
49515;BME280;35415;47.870;16.058;2023-04-26T12:44:08;97189.94;;;11.50;46.74
49515;BME280;35415;47.870;16.058;2023-04-26T12:46:36;97193.97;;;11.47;45.33
49515;BME280;35415;47.870;16.058;2023-04-26T12:49:04;97214.41;;;11.53;45.21
49515;BME280;35415;47.870;16.058;2023-04-26T12:51:32;97217.66;;;11.50;43.83
49515;BME280;35415;47.870;16.058;2023-04-26T12:53:59;97212.84;;;11.47;44.25
49515;BME280;35415;47.870;16.058;2023-04-26T12:56:28;97205.31;;;11.44;45.40
49515;BME280;35415;47.870;16.058;2023-04-26T12:58:55;97166.09;;;11.12;44.68
49515;BME280;35415;47.870;16.058;2023-04-26T13:01:22;97204.50;;;11.43;44.31
49515;BME280;35415;47.870;16.058;2023-04-26T13:03:49;97207.19;;;11.43;43.10
49515;BME280;35415;47.870;16.058;2023-04-26T13:06:17;97212.31;;;11.40;42.84
49515;BME280;35415;47.870;16.058;2023-04-26T13:08:44;97173.31;;;11.22;43.09
49515;BME280;35415;47.870;16.058;2023-04-26T13:11:11;97204.50;;;11.38;43.11
49515;BME280;35415;47.870;16.058;2023-04-26T13:13:39;97202.09;;;11.37;43.17
49515;BME280;35415;47.870;16.058;2023-04-26T13:16:06;97210.69;;;11.39;44.12
49515;BME280;35415;47.870;16.058;2023-04-26T13:18:33;97208.81;;;11.39;43.16
49515;BME280;35415;47.870;16.058;2023-04-26T13:21:00;97132.22;;;10.86;42.93
49515;BME280;35415;47.870;16.058;2023-04-26T13:23:29;97189.47;;;11.17;43.08
49515;BME280;35415;47.870;16.058;2023-04-26T13:25:56;97184.66;;;11.14;42.48
49515;BME280;35415;47.870;16.058;2023-04-26T13:28:26;97214.47;;;11.38;43.66
49515;BME280;35415;47.870;16.058;2023-04-26T13:30:57;97205.31;;;11.39;42.95
49515;BME280;35415;47.870;16.058;2023-04-26T13:33:25;97194.28;;;11.35;43.15
49515;BME280;35415;47.870;16.058;2023-04-26T13:35:55;97219.56;;;11.50;43.76
49515;BME280;35415;47.870;16.058;2023-04-26T13:38:22;97205.53;;;11.53;43.39
49515;BME280;35415;47.870;16.058;2023-04-26T13:40:51;97211.19;;;11.56;42.66
49515;BME280;35415;47.870;16.058;2023-04-26T13:43:20;97209.28;;;11.57;42.80
49515;BME280;35415;47.870;16.058;2023-04-26T13:45:47;97186.72;;;11.42;41.89
49515;BME280;35415;47.870;16.058;2023-04-26T13:48:14;97216.31;;;11.53;42.27
49515;BME280;35415;47.870;16.058;2023-04-26T13:50:42;97217.91;;;11.54;42.96
49515;BME280;35415;47.870;16.058;2023-04-26T13:53:09;97224.41;;;11.53;42.59
49515;BME280;35415;47.870;16.058;2023-04-26T13:55:36;97231.94;;;11.51;43.20
49515;BME280;35415;47.870;16.058;2023-04-26T13:58:04;97223.63;;;11.37;43.36
49515;BME280;35415;47.870;16.058;2023-04-26T14:00:31;97229.53;;;11.39;43.19
49515;BME280;35415;47.870;16.058;2023-04-26T14:02:59;97235.75;;;11.34;45.31
49515;BME280;35415;47.870;16.058;2023-04-26T14:05:26;97230.38;;;11.34;45.18
49515;BME280;35415;47.870;16.058;2023-04-26T14:07:53;97201.63;;;11.09;44.42
49515;BME280;35415;47.870;16.058;2023-04-26T14:10:20;97230.13;;;11.26;44.88
49515;BME280;35415;47.870;16.058;2023-04-26T14:12:48;97220.16;;;11.21;44.97
49515;BME280;35415;47.870;16.058;2023-04-26T14:15:16;97211.00;;;11.22;44.32
49515;BME280;35415;47.870;16.058;2023-04-26T14:17:43;97217.47;;;11.21;44.45
49515;BME280;35415;47.870;16.058;2023-04-26T14:20:11;97204.56;;;11.13;44.75
49515;BME280;35415;47.870;16.058;2023-04-26T14:22:39;97215.03;;;11.25;44.55
49515;BME280;35415;47.870;16.058;2023-04-26T14:25:07;97208.03;;;11.29;44.22
49515;BME280;35415;47.870;16.058;2023-04-26T14:30:38;97176.03;;;11.17;43.65
49515;BME280;35415;47.870;16.058;2023-04-26T14:33:15;97018.00;;;10.17;43.40
49515;BME280;35415;47.870;16.058;2023-04-26T14:35:53;97222.00;;;11.46;43.30
49515;BME280;35415;47.870;16.058;2023-04-26T14:38:32;97210.94;;;11.48;42.72
49515;BME280;35415;47.870;16.058;2023-04-26T14:50:20;97126.69;;;11.37;44.24
49515;BME280;35415;47.870;16.058;2023-04-26T14:52:47;97206.50;;;11.87;43.52
49515;BME280;35415;47.870;16.058;2023-04-26T14:55:16;97192.19;;;11.92;42.65
49515;BME280;35415;47.870;16.058;2023-04-26T14:57:44;97207.03;;;11.94;42.87
49515;BME280;35415;47.870;16.058;2023-04-26T15:00:12;97196.56;;;11.83;42.76
49515;BME280;35415;47.870;16.058;2023-04-26T15:02:41;97158.13;;;11.52;43.20
49515;BME280;35415;47.870;16.058;2023-04-26T15:07:44;97160.81;;;11.52;42.98